createdAt,value
2022-07-30T00:00:40.126Z,23.90
2022-07-30T00:03:08.520Z,23.86
2022-07-30T00:05:36.933Z,23.84
2022-07-30T00:08:05.876Z,23.85
2022-07-30T00:10:34.219Z,23.84
2022-07-30T00:13:02.586Z,23.79
2022-07-30T00:15:32.347Z,23.79
2022-07-30T00:18:00.836Z,23.71
2022-07-30T00:20:29.421Z,23.69
2022-07-30T00:22:58.080Z,23.68
2022-07-30T00:25:26.892Z,23.70
2022-07-30T00:27:55.238Z,23.65
2022-07-30T00:30:23.903Z,23.67
2022-07-30T00:32:53.705Z,23.67
2022-07-30T00:35:22.103Z,23.67
2022-07-30T00:37:50.506Z,23.64
2022-07-30T00:40:19.443Z,23.69
2022-07-30T00:42:49.013Z,23.64
2022-07-30T00:45:19.650Z,23.58
2022-07-30T00:47:48.134Z,23.58
2022-07-30T00:50:18.396Z,23.51
2022-07-30T00:52:47.214Z,23.49
2022-07-30T00:55:16.843Z,23.45
2022-07-30T00:57:46.135Z,23.49
2022-07-30T01:00:17.693Z,23.48
2022-07-30T01:02:46.153Z,23.47
2022-07-30T01:05:15.166Z,23.48
2022-07-30T01:07:45.209Z,23.43
2022-07-30T01:10:15.415Z,23.41
2022-07-30T01:12:45.163Z,23.41
2022-07-30T01:15:14.324Z,23.35
2022-07-30T01:17:42.689Z,23.34
2022-07-30T01:20:17.499Z,23.32
2022-07-30T01:23:00.602Z,23.34
2022-07-30T01:25:54.486Z,23.29
2022-07-30T01:28:29.988Z,23.32
2022-07-30T01:31:00.119Z,23.23
2022-07-30T01:33:31.908Z,23.22
2022-07-30T01:36:02.424Z,23.23
2022-07-30T01:38:34.743Z,23.33
2022-07-30T01:41:06.582Z,23.15
2022-07-30T01:43:36.853Z,23.21
2022-07-30T01:46:06.121Z,22.78
2022-07-30T01:48:40.708Z,22.67
2022-07-30T01:51:10.372Z,22.83
2022-07-30T01:53:41.945Z,22.78
2022-07-30T01:56:16.650Z,22.70
2022-07-30T01:58:47.699Z,22.60
2022-07-30T02:01:16.219Z,22.77
2022-07-30T02:03:44.935Z,22.85
2022-07-30T02:06:20.617Z,22.82
2022-07-30T02:08:56.206Z,22.48
2022-07-30T02:11:43.846Z,22.63
2022-07-30T02:14:20.324Z,22.46
2022-07-30T02:16:56.176Z,22.19
2022-07-30T02:19:32.793Z,21.96
2022-07-30T02:22:17.104Z,22.53
2022-07-30T02:24:49.176Z,22.03
2022-07-30T02:27:25.246Z,21.64
2022-07-30T02:29:55.556Z,21.35
2022-07-30T02:32:26.788Z,21.68
2022-07-30T02:35:02.742Z,22.16
2022-07-30T02:37:42.766Z,21.75
2022-07-30T02:40:16.648Z,21.91
2022-07-30T02:42:50.619Z,22.29
2022-07-30T02:45:20.385Z,22.49
2022-07-30T02:47:55.745Z,22.62
2022-07-30T02:50:26.461Z,22.39
2022-07-30T02:52:57.277Z,22.31
2022-07-30T02:55:27.675Z,22.49
2022-07-30T02:57:58.726Z,22.57
2022-07-30T03:00:28.404Z,22.64
2022-07-30T03:02:58.843Z,22.60
2022-07-30T03:05:31.137Z,22.59
2022-07-30T03:08:01.198Z,22.74
2022-07-30T03:10:31.941Z,22.50
2022-07-30T03:13:04.346Z,21.87
2022-07-30T03:15:39.506Z,22.31
2022-07-30T03:18:13.257Z,22.09
2022-07-30T03:20:42.158Z,22.34
2022-07-30T03:23:13.577Z,22.40
2022-07-30T03:25:43.816Z,22.41
2022-07-30T03:28:15.394Z,22.53
2022-07-30T03:30:45.146Z,22.49
2022-07-30T03:33:15.883Z,22.50
2022-07-30T03:35:44.790Z,22.48
2022-07-30T03:38:14.403Z,21.65
2022-07-30T03:40:44.297Z,22.24
2022-07-30T03:43:18.534Z,22.09
2022-07-30T03:46:04.129Z,22.24
2022-07-30T03:48:34.613Z,22.29
2022-07-30T03:51:05.051Z,22.23
2022-07-30T03:53:34.341Z,22.28
2022-07-30T03:56:03.286Z,22.32
2022-07-30T03:58:35.987Z,22.40
2022-07-30T04:01:04.996Z,22.40
2022-07-30T04:03:36.412Z,22.43
2022-07-30T04:06:05.053Z,22.37
2022-07-30T04:08:33.423Z,22.32
2022-07-30T04:11:01.831Z,22.31
2022-07-30T04:13:30.314Z,22.35
2022-07-30T04:16:38.796Z,22.36
2022-07-30T04:18:59.715Z,22.39
2022-07-30T04:21:29.999Z,22.40
2022-07-30T04:24:04.794Z,22.44
2022-07-30T04:26:36.924Z,22.35
2022-07-30T04:29:09.306Z,21.81
2022-07-30T04:31:44.272Z,22.25
2022-07-30T04:34:15.906Z,22.23
2022-07-30T04:36:44.900Z,22.11
2022-07-30T04:39:15.906Z,21.15
2022-07-30T04:41:49.328Z,22.01
2022-07-30T04:44:20.115Z,21.35
2022-07-30T04:46:49.918Z,22.08
2022-07-30T04:49:20.582Z,21.35
2022-07-30T04:51:50.133Z,21.67
2022-07-30T04:54:21.749Z,21.58
2022-07-30T04:56:53.491Z,21.72
2022-07-30T04:59:29.641Z,21.70
2022-07-30T05:02:00.674Z,22.07
2022-07-30T05:04:30.364Z,21.68
2022-07-30T05:07:00.416Z,21.85
2022-07-30T05:09:30.009Z,21.57
2022-07-30T05:11:59.436Z,21.03
2022-07-30T05:14:28.704Z,21.53
2022-07-30T05:16:59.172Z,21.35
2022-07-30T05:19:27.803Z,20.92
2022-07-30T05:21:56.353Z,21.35
2022-07-30T05:24:24.846Z,20.23
2022-07-30T05:26:53.401Z,20.92
2022-07-30T05:29:21.806Z,20.81
2022-07-30T05:31:51.731Z,20.57
2022-07-30T05:34:21.860Z,20.76
2022-07-30T05:36:51.129Z,20.24
2022-07-30T05:39:19.816Z,20.84
2022-07-30T05:41:48.248Z,20.61
2022-07-30T05:46:50.659Z,20.30
2022-07-30T05:49:19.305Z,20.92
2022-07-30T05:51:50.412Z,21.31
2022-07-30T05:54:18.861Z,21.22
2022-07-30T05:56:47.224Z,20.65
2022-07-30T05:59:15.545Z,21.70
2022-07-30T06:01:43.923Z,21.60
2022-07-30T06:04:12.535Z,21.10
2022-07-30T06:06:40.910Z,21.63
2022-07-30T06:09:10.664Z,22.04
2022-07-30T06:11:39.137Z,20.69
2022-07-30T06:14:07.521Z,21.58
2022-07-30T06:16:35.896Z,21.68
2022-07-30T06:19:04.587Z,21.53
2022-07-30T06:22:05.592Z,20.57
2022-07-30T06:24:22.624Z,21.00
2022-07-30T06:26:51.123Z,20.66
2022-07-30T06:29:20.507Z,21.25
2022-07-30T06:31:48.880Z,21.60
2022-07-30T06:34:17.232Z,21.37
2022-07-30T06:36:45.590Z,20.96
2022-07-30T06:39:14.069Z,21.23
2022-07-30T06:41:44.837Z,21.07
2022-07-30T06:44:13.198Z,21.12
2022-07-30T06:46:41.619Z,20.53
2022-07-30T06:49:11.492Z,21.07
2022-07-30T06:51:39.927Z,21.86
2022-07-30T06:54:08.822Z,21.37
2022-07-30T06:56:37.375Z,21.32
2022-07-30T06:59:07.076Z,21.22
2022-07-30T07:01:35.574Z,20.19
2022-07-30T07:04:04.396Z,20.34
2022-07-30T07:06:32.937Z,20.84
2022-07-30T07:09:01.706Z,21.05
2022-07-30T07:11:30.090Z,21.15
2022-07-30T07:14:04.063Z,22.61
2022-07-30T07:16:34.464Z,23.57
2022-07-30T07:19:02.818Z,24.72
2022-07-30T07:21:31.178Z,25.30
2022-07-30T07:24:00.591Z,24.68
2022-07-30T07:26:29.015Z,23.46
2022-07-30T07:28:57.359Z,25.63
2022-07-30T07:32:06.040Z,24.33
2022-07-30T07:34:17.268Z,22.12
2022-07-30T07:36:45.684Z,23.45
2022-07-30T07:39:14.910Z,24.22
2022-07-30T07:41:48.776Z,23.98
2022-07-30T07:44:17.896Z,26.13
2022-07-30T07:46:46.272Z,25.18
2022-07-30T07:49:16.165Z,25.89
2022-07-30T07:51:47.509Z,25.26
2022-07-30T07:54:22.252Z,25.89
2022-07-30T07:56:52.854Z,26.22
2022-07-30T07:59:21.740Z,26.47
2022-07-30T08:01:51.319Z,26.04
2022-07-30T08:04:21.165Z,25.55
2022-07-30T08:06:49.542Z,26.41
2022-07-30T08:09:17.940Z,26.29
2022-07-30T08:11:46.352Z,26.83
2022-07-30T08:14:14.711Z,26.10
2022-07-30T08:16:43.239Z,26.49
2022-07-30T08:19:12.207Z,25.42
2022-07-30T08:21:41.934Z,24.63
2022-07-30T08:24:10.409Z,25.25
2022-07-30T08:26:38.761Z,26.34
2022-07-30T08:29:07.133Z,25.93
2022-07-30T08:31:35.494Z,26.37
2022-07-30T08:34:03.829Z,26.04
2022-07-30T08:36:32.176Z,24.43
2022-07-30T08:39:01.960Z,25.88
2022-07-30T08:41:30.882Z,26.86
2022-07-30T08:44:02.372Z,25.61
2022-07-30T08:46:34.601Z,26.80
2022-07-30T08:49:09.131Z,26.99
2022-07-30T08:51:40.152Z,25.71
2022-07-30T08:54:09.985Z,25.82
2022-07-30T08:56:38.878Z,25.78
2022-07-30T08:59:07.352Z,25.78
2022-07-30T09:01:35.711Z,25.80
2022-07-30T09:06:33.968Z,25.42
2022-07-30T09:09:03.305Z,26.74
2022-07-30T09:11:36.174Z,25.61
2022-07-30T09:14:12.113Z,25.80
2022-07-30T09:16:41.821Z,27.76
2022-07-30T09:19:16.217Z,27.40
2022-07-30T09:21:55.928Z,26.92
2022-07-30T09:24:24.340Z,26.11
2022-07-30T09:27:00.166Z,26.70
2022-07-30T09:29:31.133Z,25.22
2022-07-30T09:32:01.795Z,25.84
2022-07-30T09:34:33.259Z,27.65
2022-07-30T09:37:04.798Z,27.55
2022-07-30T09:39:35.448Z,27.09
2022-07-30T09:42:19.570Z,27.09
2022-07-30T09:44:48.381Z,27.29
2022-07-30T09:47:33.223Z,27.31
2022-07-30T09:50:07.873Z,28.16
2022-07-30T09:52:37.111Z,26.76
2022-07-30T09:55:14.233Z,27.32
2022-07-30T09:57:58.732Z,28.07
2022-07-30T10:00:30.085Z,27.01
2022-07-30T10:03:00.509Z,27.58
2022-07-30T10:05:50.046Z,27.49
2022-07-30T10:08:21.781Z,27.70
2022-07-30T10:10:50.742Z,27.68
2022-07-30T10:13:22.065Z,28.03
2022-07-30T10:15:51.392Z,26.96
2022-07-30T10:18:19.787Z,27.60
2022-07-30T10:20:49.310Z,27.55
2022-07-30T10:23:20.284Z,27.21
2022-07-30T10:25:58.064Z,27.99
2022-07-30T10:28:31.423Z,28.37
2022-07-30T10:31:47.419Z,27.09
2022-07-30T10:33:54.371Z,27.71
2022-07-30T10:36:24.858Z,27.68
2022-07-30T10:38:55.125Z,27.73
2022-07-30T10:41:43.131Z,27.49
2022-07-30T10:44:45.009Z,27.62
2022-07-30T10:47:18.600Z,26.70
2022-07-30T10:50:11.851Z,26.39
2022-07-30T10:52:52.339Z,26.98
2022-07-30T10:55:37.534Z,27.65
2022-07-30T10:58:10.047Z,27.52
2022-07-30T11:01:00.305Z,27.21
2022-07-30T11:03:40.144Z,26.86
2022-07-30T11:06:30.472Z,28.02
2022-07-30T11:08:59.186Z,28.09
2022-07-30T11:12:16.123Z,28.07
2022-07-30T11:15:06.659Z,27.42
2022-07-30T11:18:05.905Z,28.39
2022-07-30T11:20:41.165Z,28.22
2022-07-30T11:23:40.605Z,27.68
2022-07-30T11:26:14.315Z,27.81
2022-07-30T11:28:49.500Z,28.16
2022-07-30T11:32:07.422Z,27.43
2022-07-30T11:34:30.975Z,26.81
2022-07-30T11:37:22.164Z,26.52
2022-07-30T11:40:14.174Z,26.85
2022-07-30T11:42:45.009Z,26.69
2022-07-30T11:45:30.958Z,26.84
2022-07-30T11:48:01.316Z,26.23
2022-07-30T11:50:33.761Z,26.69
2022-07-30T11:53:04.800Z,26.45
2022-07-30T11:55:36.010Z,27.06
2022-07-30T11:58:07.869Z,26.96
2022-07-30T12:00:39.803Z,27.09
2022-07-30T12:03:16.865Z,26.61
2022-07-30T12:05:51.257Z,26.70
2022-07-30T12:08:36.029Z,26.38
2022-07-30T12:11:05.065Z,26.09
2022-07-30T12:13:44.810Z,25.88
2022-07-30T12:16:17.626Z,25.37
2022-07-30T12:18:47.341Z,25.98
2022-07-30T12:21:17.668Z,26.31
2022-07-30T12:23:56.586Z,26.41
2022-07-30T12:26:27.359Z,26.75
2022-07-30T12:28:58.608Z,26.94
2022-07-30T12:31:27.617Z,27.10
2022-07-30T12:33:58.267Z,27.36
2022-07-30T12:36:33.898Z,27.34
2022-07-30T12:39:06.670Z,27.36
2022-07-30T12:41:46.311Z,27.17
2022-07-30T12:44:36.514Z,27.89
2022-07-30T12:47:06.228Z,27.53
2022-07-30T12:49:37.734Z,27.18
2022-07-30T12:52:29.313Z,27.20
2022-07-30T12:55:02.539Z,26.97
2022-07-30T12:58:01.724Z,26.89
2022-07-30T13:00:51.115Z,26.80
2022-07-30T13:03:24.700Z,27.07
2022-07-30T13:05:55.941Z,27.63
2022-07-30T13:08:54.570Z,27.58
2022-07-30T13:11:25.661Z,27.94
2022-07-30T13:13:54.706Z,27.10
2022-07-30T13:16:23.151Z,27.61
2022-07-30T13:18:51.457Z,27.74
2022-07-30T13:21:19.788Z,27.68
2022-07-30T13:23:48.131Z,28.08
2022-07-30T13:26:17.830Z,27.98
2022-07-30T13:28:47.083Z,27.88
2022-07-30T13:31:15.700Z,27.54
2022-07-30T13:33:44.592Z,27.65
2022-07-30T13:36:12.921Z,27.07
2022-07-30T13:38:41.289Z,26.85
2022-07-30T13:41:09.818Z,26.77
2022-07-30T13:43:41.532Z,27.13
2022-07-30T13:46:09.876Z,26.65
2022-07-30T13:48:38.860Z,26.68
2022-07-30T13:51:07.456Z,26.93
2022-07-30T13:53:35.824Z,27.02
2022-07-30T13:56:04.284Z,27.60
2022-07-30T13:58:36.126Z,26.87
2022-07-30T14:01:07.625Z,27.32
2022-07-30T14:03:36.512Z,27.63
2022-07-30T14:06:10.065Z,27.44
2022-07-30T14:08:39.856Z,27.73
2022-07-30T14:11:08.321Z,27.68
2022-07-30T14:13:36.782Z,27.64
2022-07-30T14:16:22.583Z,27.45
2022-07-30T14:18:55.676Z,27.68
2022-07-30T14:21:24.224Z,27.78
2022-07-30T14:23:52.582Z,27.50
2022-07-30T14:26:20.973Z,26.89
2022-07-30T14:28:49.321Z,27.17
2022-07-30T14:31:19.014Z,27.09
2022-07-30T14:33:47.384Z,27.34
2022-07-30T14:36:15.836Z,27.37
2022-07-30T14:38:44.442Z,27.54
2022-07-30T14:41:12.807Z,27.90
2022-07-30T14:43:41.164Z,26.88
2022-07-30T14:46:09.486Z,27.45
2022-07-30T14:48:39.245Z,27.88
2022-07-30T14:51:17.670Z,27.71
2022-07-30T14:53:48.120Z,27.83
2022-07-30T14:56:17.579Z,28.02
2022-07-30T14:58:46.335Z,28.04
2022-07-30T15:01:15.686Z,27.60
2022-07-30T15:03:47.007Z,27.55
2022-07-30T15:06:16.066Z,27.70
2022-07-30T15:08:46.102Z,27.15
2022-07-30T15:11:14.717Z,26.45
2022-07-30T15:13:49.677Z,26.83
2022-07-30T15:16:20.235Z,26.76
2022-07-30T15:18:50.201Z,26.79
2022-07-30T15:21:18.751Z,27.70
2022-07-30T15:23:47.176Z,27.76
2022-07-30T15:26:15.532Z,28.02
2022-07-30T15:28:43.859Z,28.03
2022-07-30T15:31:12.413Z,27.75
2022-07-30T15:33:43.216Z,27.63
2022-07-30T15:36:14.091Z,27.68
2022-07-30T15:38:43.374Z,27.08
2022-07-30T15:41:13.778Z,27.50
2022-07-30T15:43:42.380Z,27.81
2022-07-30T15:46:10.795Z,27.71
2022-07-30T15:48:39.167Z,27.24
2022-07-30T15:51:08.319Z,26.93
2022-07-30T15:53:38.070Z,27.39
2022-07-30T15:56:06.825Z,26.98
2022-07-30T15:58:35.737Z,26.76
2022-07-30T16:01:06.405Z,27.29
2022-07-30T16:03:34.736Z,27.15
2022-07-30T16:06:03.091Z,27.36
2022-07-30T16:08:31.478Z,27.03
2022-07-30T16:11:03.839Z,26.70
2022-07-30T16:13:32.308Z,26.95
2022-07-30T16:16:00.701Z,26.88
2022-07-30T16:18:29.075Z,27.30
2022-07-30T16:20:58.835Z,27.53
2022-07-30T16:23:27.161Z,27.09
2022-07-30T16:25:55.526Z,26.68
2022-07-30T16:28:25.308Z,27.10
2022-07-30T16:30:54.036Z,27.28
2022-07-30T16:33:22.420Z,26.98
2022-07-30T16:35:51.053Z,27.20
2022-07-30T16:38:20.257Z,27.23
2022-07-30T16:40:48.657Z,26.92
2022-07-30T16:43:19.694Z,26.97
2022-07-30T16:45:50.096Z,27.01
2022-07-30T16:48:18.438Z,26.97
2022-07-30T16:50:47.252Z,26.82
2022-07-30T16:53:15.645Z,26.80
2022-07-30T16:55:44.317Z,27.42
2022-07-30T16:58:13.120Z,27.24
2022-07-30T17:00:41.856Z,27.10
2022-07-30T17:03:11.875Z,27.06
2022-07-30T17:05:46.684Z,27.12
2022-07-30T17:08:15.570Z,27.56
2022-07-30T17:10:47.850Z,26.76
2022-07-30T17:13:16.708Z,26.67
2022-07-30T17:15:46.894Z,26.46
2022-07-30T17:18:17.531Z,26.78
2022-07-30T17:20:46.418Z,26.93
2022-07-30T17:23:14.999Z,26.73
2022-07-30T17:25:43.420Z,26.53
2022-07-30T17:28:11.759Z,26.68
2022-07-30T17:30:40.151Z,26.98
2022-07-30T17:33:08.575Z,26.60
2022-07-30T17:35:38.847Z,26.50
2022-07-30T17:38:07.386Z,26.62
2022-07-30T17:40:35.847Z,26.45
2022-07-30T17:43:04.827Z,26.23
2022-07-30T17:45:34.745Z,26.72
2022-07-30T17:48:03.281Z,26.00
2022-07-30T17:50:32.625Z,26.88
2022-07-30T17:53:03.728Z,26.36
2022-07-30T17:55:34.986Z,26.40
2022-07-30T17:58:03.979Z,26.09
2022-07-30T18:00:32.675Z,25.50
2022-07-30T18:03:01.045Z,25.62
2022-07-30T18:05:29.648Z,26.06
2022-07-30T18:07:58.024Z,25.96
2022-07-30T18:10:27.732Z,26.57
2022-07-30T18:12:56.278Z,27.03
2022-07-30T18:15:24.638Z,25.94
2022-07-30T18:17:53.092Z,26.78
2022-07-30T18:20:21.503Z,26.71
2022-07-30T18:22:51.732Z,26.73
2022-07-30T18:25:20.473Z,26.73
2022-07-30T18:27:53.133Z,26.90
2022-07-30T18:30:21.684Z,26.65
2022-07-30T18:32:50.505Z,26.29
2022-07-30T18:35:19.169Z,26.71
2022-07-30T18:37:48.316Z,26.82
2022-07-30T18:40:23.747Z,26.39
2022-07-30T18:42:53.886Z,26.94
2022-07-30T18:45:22.846Z,26.51
2022-07-30T18:47:51.217Z,27.15
2022-07-30T18:50:20.215Z,26.91
2022-07-30T18:52:48.932Z,27.13
2022-07-30T18:55:18.034Z,27.42
2022-07-30T18:57:46.359Z,26.17
2022-07-30T19:00:32.757Z,26.59
2022-07-30T19:03:04.581Z,26.64
2022-07-30T19:05:33.074Z,27.22
2022-07-30T19:08:01.410Z,27.52
2022-07-30T19:10:29.902Z,27.66
2022-07-30T19:12:58.550Z,27.55
2022-07-30T19:15:29.505Z,27.20
2022-07-30T19:17:58.742Z,27.54
2022-07-30T19:20:27.577Z,27.67
2022-07-30T19:23:03.101Z,27.73
2022-07-30T19:25:33.570Z,27.75
2022-07-30T19:28:02.447Z,27.77
2022-07-30T19:30:33.620Z,27.76
2022-07-30T19:33:05.969Z,27.66
2022-07-30T19:35:34.676Z,27.44
2022-07-30T19:38:03.220Z,27.50
2022-07-30T19:40:32.079Z,27.60
2022-07-30T19:43:06.588Z,27.67
2022-07-30T19:45:47.270Z,27.70
2022-07-30T19:48:29.045Z,27.72
2022-07-30T19:51:01.551Z,27.69
2022-07-30T19:53:31.623Z,27.67
2022-07-30T19:56:08.391Z,27.67
2022-07-30T19:58:40.321Z,27.67
2022-07-30T20:01:12.290Z,27.67
2022-07-30T20:03:40.997Z,27.65
2022-07-30T20:06:10.283Z,27.63
2022-07-30T20:08:44.889Z,27.64
2022-07-30T20:11:34.834Z,27.64
2022-07-30T20:14:03.193Z,27.64
2022-07-30T20:16:33.114Z,27.63
2022-07-30T20:19:03.326Z,27.62
2022-07-30T20:22:07.267Z,27.61
2022-07-30T20:24:22.019Z,27.56
2022-07-30T20:26:50.491Z,26.35
2022-07-30T20:29:20.624Z,26.55
2022-07-30T20:31:50.690Z,26.13
2022-07-30T20:34:23.427Z,26.51
2022-07-30T20:36:52.661Z,26.83
2022-07-30T20:39:23.613Z,26.73
2022-07-30T20:42:07.694Z,27.15
2022-07-30T20:44:37.975Z,27.34
2022-07-30T20:47:08.809Z,27.42
2022-07-30T20:49:38.341Z,27.50
2022-07-30T20:52:10.174Z,27.42
2022-07-30T20:54:45.139Z,27.02
2022-07-30T20:57:15.484Z,26.62
2022-07-30T20:59:44.416Z,26.91
2022-07-30T21:02:15.072Z,27.02
2022-07-30T21:04:46.456Z,27.09
2022-07-30T21:07:14.963Z,26.46
2022-07-30T21:09:51.998Z,26.81
2022-07-30T21:12:32.503Z,27.08
2022-07-30T21:15:01.666Z,27.12
2022-07-30T21:17:31.436Z,27.18
2022-07-30T21:20:01.172Z,27.20
2022-07-30T21:22:29.586Z,27.25
2022-07-30T21:24:57.949Z,27.23
2022-07-30T21:27:29.884Z,27.23
2022-07-30T21:29:58.766Z,27.21
2022-07-30T21:32:28.305Z,27.21
2022-07-30T21:34:58.012Z,27.18
2022-07-30T21:37:36.598Z,27.17
2022-07-30T21:40:19.116Z,27.17
2022-07-30T21:42:53.197Z,27.12
2022-07-30T21:45:21.600Z,27.13
2022-07-30T21:47:51.310Z,27.18
2022-07-30T21:50:21.651Z,27.23
2022-07-30T21:52:50.123Z,27.20
2022-07-30T21:55:19.929Z,26.87
2022-07-30T21:57:49.837Z,26.93
2022-07-30T22:00:32.260Z,26.99
2022-07-30T22:03:00.610Z,26.82
2022-07-30T22:05:38.595Z,26.39
2022-07-30T22:08:20.068Z,26.71
2022-07-30T22:10:49.732Z,26.53
2022-07-30T22:13:22.402Z,26.45
2022-07-30T22:15:51.135Z,26.62
2022-07-30T22:18:21.715Z,26.49
2022-07-30T22:20:54.585Z,26.76
2022-07-30T22:23:23.668Z,26.55
2022-07-30T22:25:53.892Z,26.22
2022-07-30T22:28:28.777Z,26.41
2022-07-30T22:30:57.228Z,26.60
2022-07-30T22:33:25.675Z,26.65
2022-07-30T22:35:56.598Z,26.75
2022-07-30T22:38:24.897Z,26.33
2022-07-30T22:40:53.243Z,26.61
2022-07-30T22:43:21.688Z,26.75
2022-07-30T22:45:50.265Z,26.69
2022-07-30T22:48:20.560Z,26.78
2022-07-30T22:50:56.984Z,26.77
2022-07-30T22:54:10.841Z,26.80
2022-07-30T22:56:18.537Z,26.87
2022-07-30T22:58:48.674Z,26.60
2022-07-30T23:01:17.935Z,26.58
2022-07-30T23:03:46.268Z,26.29
2022-07-30T23:06:17.920Z,26.47
2022-07-30T23:08:49.208Z,26.33
2022-07-30T23:11:17.817Z,26.49
2022-07-30T23:13:46.148Z,26.65
2022-07-30T23:16:14.524Z,26.63
2022-07-30T23:18:42.861Z,26.66
2022-07-30T23:21:11.290Z,26.63
2022-07-30T23:23:40.988Z,26.63
2022-07-30T23:26:09.537Z,26.61
2022-07-30T23:28:38.640Z,26.56
2022-07-30T23:31:07.145Z,26.64
2022-07-30T23:33:35.481Z,26.65
2022-07-30T23:36:06.839Z,26.62
2022-07-30T23:38:35.595Z,26.61
2022-07-30T23:41:06.825Z,26.65
2022-07-30T23:43:35.742Z,26.55
2022-07-30T23:46:05.132Z,26.28
2022-07-30T23:48:38.140Z,26.40
2022-07-30T23:51:06.690Z,26.20
2022-07-30T23:53:35.043Z,26.07
2022-07-30T23:56:05.374Z,25.98
2022-07-30T23:58:34.323Z,25.98
